Station: Edinburgh

  Atmospheric Gas Attenuation - ITU Rec 676-11   --------------- db/100km ---------------
Date Time Temp RH % AH g/m3 Dew Point Wind Direction Speed kph Gust kph Barometer mB Rainfall Since 9am 24GHz 47GHz 76GHz 122GHz 134GHz 241GHz
15 01:30 12 94 10.02 11.1 2 6 1016.2 1.4 22.7 29.0 46.9 123.2 120.7 416.3
15 01:20 12.1 93 9.97 11 7 7 1016.2 1.4 22.6 28.8 46.6 122.5 119.9 413.3
15 01:10 12.2 93 10.04 11.1 6 9 1016.2 1.4 22.8 28.9 46.8 123.2 120.7 416.3
15 01:00 12.3 93 10.1 11.2 6 7 1016.1 1.4 22.9 29.0 47.0 123.7 121.4 418.7
15 00:50 12.5 92 10.12 11.2 9 15 1016.1 1.2 22.9 29.0 47.0 123.6 121.4 418.6
15 00:40 13 89 10.09 11.2 13 15 1016.1 1 22.8 28.7 46.6 122.4 120.1 414.4
15 00:30 13 87 9.87 10.9 11 11 1016.2 0.8 22.3 28.4 45.6 119.9 117.1 403.6
15 00:20 12.6 94 10.4 11.7 9 13 1016.1 0.8 23.5 29.4 48.1 126.7 125.2 432.0
15 00:10 12.6 95 10.51 11.8 0 0 1016 0.8 23.8 29.6 48.6 127.9 126.8 437.5
15 00:00 12.6 95 10.51 11.8 0 0 1016 0.8 23.8 29.6 48.6 127.9 126.8 437.5
14 23:50 12.7 94 10.46 11.8 0 0 1015.9 0.8 23.6 29.5 48.3 127.2 125.9 434.4
14 23:40 12.9 92 10.37 11.6 4 6 1015.9 0.8 23.4 29.3 47.8 125.8 124.3 428.8
14 23:30 12.9 93 10.48 11.8 6 7 1016 0.8 23.7 29.5 48.3 127.1 125.8 434.3
14 23:20 12.7 95 10.58 11.9 6 6 1016 0.8 23.9 29.7 48.9 128.6 127.6 440.5
14 23:10 12.5 96 10.56 11.9 7 9 1016 0.8 23.9 29.7 48.9 128.7 127.7 440.6
14 23:00 12.4 96 10.49 11.8 7 7 1015.8 0.8 23.7 29.6 48.7 128.0 126.8 437.6
14 22:50 11.9 97 10.27 11.4 7 9 1015.7 0.8 23.3 29.4 48.0 126.3 124.4 429.3
14 22:40 11.5 96 9.92 10.9 7 9 1015.6 0.8 22.5 28.9 46.7 122.8 120.0 413.8
14 22:30 11.7 96 10.04 11.1 7 9 1015.6 0.8 22.8 29.1 47.1 123.9 121.4 418.8
14 22:20 11.7 97 10.15 11.2 7 7 1015.5 0.8 23.0 29.3 47.6 125.2 123.0 424.3
14 22:10 11.1 95 9.57 10.3 11 11 1015.4 0.8 21.8 28.4 45.4 119.4 115.6 398.4
14 22:00 12.2 95 10.25 11.4 9 9 1015.5 0.8 23.2 29.3 47.7 125.5 123.6 426.5
14 21:50 12.4 95 10.38 11.6 6 7 1015.5 0.8 23.5 29.4 48.2 126.7 125.2 431.9
14 21:40 12.4 95 10.38 11.6 6 6 1015.5 0.8 23.5 29.4 48.2 126.7 125.2 431.9
14 21:30 12 94 10.02 11.1 7 7 1015.4 0.8 22.7 28.9 46.8 123.1 120.7 416.1
14 21:20 12.4 95 10.38 11.6 9 9 1015.4 0.8 23.5 29.4 48.1 126.7 125.2 431.9
14 21:10 12.6 95 10.51 11.8 7 9 1015.4 0.8 23.8 29.6 48.6 127.9 126.7 437.3
14 21:00 12.5 95 10.45 11.7 7 9 1015.4 0.8 23.6 29.5 48.4 127.3 126.0 434.8
14 20:50 12.5 95 10.45 11.7 9 9 1015.4 0.8 23.6 29.5 48.4 127.3 126.0 434.8
14 20:40 12.5 95 10.45 11.7 9 9 1015.4 0.8 23.6 29.5 48.4 127.3 126.0 434.8
14 20:30 12.6 94 10.4 11.7 9 9 1015.4 0.8 23.5 29.4 48.1 126.6 125.1 431.8
14 20:20 12.9 93 10.48 11.8 9 9 1015.3 0.8 23.7 29.4 48.3 127.0 125.8 434.1
14 20:10 13 93 10.55 11.9 7 7 1015.2 0.8 23.8 29.5 48.5 127.7 126.6 437.0
14 20:00 13.1 94 10.73 12.2 6 7 1015.2 0.8 24.2 29.8 49.2 129.6 129.0 445.4
14 19:50 13 95 10.77 12.2 6 6 1015.2 0.8 24.3 29.9 49.5 130.2 129.8 448.0
14 19:40 12.3 93 10.1 11.2 6 7 1015.1 0.8 22.9 29.0 47.0 123.6 121.3 418.3
14 19:30 12.4 92 10.05 11.1 7 7 1015.1 0.8 22.8 28.8 46.7 122.8 120.4 415.3
14 19:20 13.3 92 10.63 12 7 9 1015 0.8 24.0 29.5 48.7 128.1 127.2 439.2
14 19:10 13.5 90 10.53 11.9 0 0 1015 0.8 23.7 29.3 48.1 126.6 125.5 433.1
14 19:00 14.1 90 10.92 12.5 0 0 1014.8 0.8 24.5 29.8 49.4 130.1 130.0 449.0
14 18:50 14.3 90 11.06 12.7 4 6 1014.8 0.8 24.8 29.9 49.9 131.4 131.7 454.8
14 18:40 14.3 89 10.93 12.5 0 0 1014.7 0.8 24.6 29.7 49.3 129.8 129.8 448.3
14 18:30 14.4 90 11.13 12.8 0 0 1014.7 0.8 25.0 30.0 50.1 132.0 132.5 457.7
14 18:20 14.3 89 10.93 12.5 0 0 1014.6 0.8 24.6 29.7 49.3 129.8 129.8 448.2
14 18:10 14.4 89 11 12.6 0 0 1014.5 0.8 24.7 29.8 49.6 130.5 130.6 451.1
14 18:00 14.2 90 10.99 12.6 0 0 1014.3 0.8 24.7 29.8 49.6 130.7 130.8 451.7
14 17:50 14 89 10.74 12.2 0 0 1014.2 0.8 24.2 29.5 48.7 128.1 127.5 440.4
14 17:40 14.3 88 10.81 12.3 6 6 1014.1 0.8 24.3 29.5 48.8 128.4 128.0 442.1
14 17:30 14.2 88 10.75 12.2 6 7 1014 0.8 24.2 29.4 48.6 127.8 127.3 439.7
14 17:20 14.6 86 10.76 12.3 7 7 1013.9 0.8 24.2 29.3 48.4 127.3 126.8 437.9
14 17:10 15.1 84 10.84 12.4 9 9 1013.8 0.8 24.3 29.2 48.4 127.4 127.1 438.9
14 17:00 15.7 82 10.97 12.6 15 20 1013.8 0.8 24.6 29.3 48.6 127.9 127.9 441.9
14 16:50 15.9 80 10.83 12.5 15 17 1013.7 0.8 24.2 29.0 47.8 125.9 125.6 433.9
14 16:40 16.2 80 11.03 12.7 17 19 1013.7 0.8 24.7 29.2 48.5 127.7 127.9 441.9
14 16:30 16.2 78 10.76 12.4 20 22 1013.6 0.8 24.1 28.7 47.4 124.7 124.1 428.8
14 16:20 16.3 77 10.68 12.3 20 22 1013.5 0.8 23.9 28.6 47.0 123.6 122.9 424.4
14 16:10 16.6 77 10.88 12.6 22 24 1013.4 0.8 24.3 28.8 47.6 125.3 125.1 432.3
14 16:00 16.8 77 11.01 12.7 20 22 1013.3 0.8 24.6 29.0 48.0 126.5 126.6 437.4
14 15:50 17.2 75 10.98 12.7 24 28 1013.3 0.8 24.5 28.8 47.7 125.5 125.5 433.7
14 15:40 16.3 76 10.54 12.1 26 30 1013.2 0.8 23.6 28.3 46.4 122.0 120.9 417.6
14 15:30 16.6 75 10.59 12.2 28 35 1013.1 0.8 23.7 28.3 46.4 122.1 121.1 418.3
14 15:20 16.7 73 10.37 11.8 28 32 1013 0.8 23.2 27.9 45.4 119.5 118.0 407.3
14 15:10 16.8 77 11.01 12.7 22 28 1013 0.8 24.6 28.9 48.0 126.4 126.5 437.3
14 15:00 16.7 71 10.09 11.4 37 41 1012.9 0.8 22.6 27.4 44.3 116.4 114.2 394.1
14 14:50 17.4 72 10.67 12.3 37 41 1012.7 0.8 23.8 28.2 46.2 121.7 120.9 417.7
14 14:40 17.3 73 10.75 12.4 32 37 1012.6 0.8 24.0 28.3 46.6 122.7 122.1 422.0
14 14:30 17.7 73 11.01 12.8 30 39 1012.6 0.8 24.5 28.6 47.4 124.9 125.0 432.1
14 14:20 17.9 76 11.6 13.6 30 33 1012.4 0.8 25.8 29.5 49.8 131.1 132.8 459.2
14 14:10 18 80 12.29 14.5 24 32 1012.5 0.8 27.2 30.7 52.7 138.8 142.2 492.3
14 14:00 17.2 82 12.01 14.1 28 32 1012.5 0.8 26.7 30.5 52.0 137.0 139.8 483.5
14 13:50 17.1 82 11.94 14 30 33 1012.6 0.8 26.6 30.4 51.8 136.4 139.0 480.7
14 13:40 16.7 85 12.08 14.2 26 30 1012.7 0.8 26.9 30.8 52.6 138.8 141.7 490.2
14 13:30 16.4 87 12.14 14.2 22 26 1012.8 0.8 27.0 31.0 53.1 140.0 143.1 495.2
14 13:20 16.5 84 11.79 13.8 28 35 1012.9 0.8 26.3 30.4 51.5 135.8 138.0 477.1
14 13:10 16.7 84 11.94 14 20 24 1012.9 0.8 26.6 30.6 52.0 137.2 139.7 483.3
14 13:00 17.3 87 12.82 15.1 22 32 1013 0.8 28.4 31.9 55.5 146.3 151.2 523.6
14 12:50 16.1 89 12.2 14.3 26 32 1013 0.8 27.2 31.2 53.6 141.3 144.6 500.2
14 12:40 15.9 90 12.19 14.3 20 22 1013.2 0.8 27.2 31.3 53.7 141.6 144.9 501.1
14 12:30 15.6 92 12.23 14.3 19 24 1013.4 0.8 27.3 31.5 54.1 142.6 146.0 505.2
14 12:20 15.8 90 12.11 14.2 19 24 1013.3 0.8 27.0 31.2 53.4 140.8 143.9 497.7
14 12:10 15.6 89 11.84 13.8 22 24 1013.5 0.8 26.4 30.8 52.4 138.0 140.4 485.5
14 12:00 15.2 88 11.42 13.2 26 30 1013.7 0.8 25.6 30.2 50.8 133.9 135.1 467.0
14 11:50 15.2 88 11.42 13.2 20 24 1013.7 0.8 25.6 30.2 50.8 133.9 135.1 467.0
14 11:40 15.3 88 11.49 13.3 22 24 1013.7 0.8 25.7 30.3 51.1 134.5 135.9 469.9
14 11:30 15.5 88 11.63 13.5 24 28 1013.8 0.8 26.0 30.5 51.5 135.8 137.6 475.7
14 11:20 15.3 88 11.49 13.3 28 30 1014 0.8 25.7 30.3 51.1 134.5 136.0 470.0
14 11:10 15.3 86 11.23 13 26 28 1014.1 0.8 25.1 29.9 50.0 131.5 132.3 457.1
14 11:00 15.2 88 11.42 13.2 24 28 1014.2 0.8 25.6 30.2 50.8 133.9 135.2 467.2
14 10:50 14.6 90 11.26 13 19 22 1014.3 0.8 25.2 30.2 50.5 133.1 133.9 462.8
14 10:40 14.4 89 11 12.6 22 26 1014.3 0.8 24.7 29.8 49.5 130.4 130.6 451.0
14 10:30 14.3 90 11.06 12.7 20 24 1014.4 0.8 24.8 29.9 49.9 131.3 131.6 454.7
14 10:20 14.4 88 10.88 12.4 24 26 1014.5 0.8 24.4 29.6 49.0 129.1 128.9 445.1
14 10:10 14.2 88 10.75 12.2 17 20 1014.6 0.2 24.2 29.4 48.6 127.9 127.4 439.9
14 10:00 13.9 89 10.67 12.1 17 19 1014.7 0.2 24.0 29.4 48.4 127.5 126.8 437.7
14 09:50 13.9 88 10.55 11.9 17 19 1014.7 0.2 23.8 29.2 47.9 126.1 125.1 431.7
14 09:40 14 87 10.49 11.9 19 20 1014.6 0 23.6 29.0 47.6 125.3 124.0 428.2
14 09:30 13.8 88 10.49 11.8 15 19 1014.7 0 23.6 29.1 47.7 125.6 124.4 429.3
14 09:20 13.8 86 10.25 11.5 22 24 1014.7 0 23.1 28.7 46.7 122.8 121.0 417.5
14 09:10 13.8 85 10.13 11.3 20 22 1014.7 0 22.9 28.5 46.2 121.5 119.3 411.6
14 09:00 13.7 87 10.3 11.6 19 20 1014.6 0 23.2 28.8 47.0 123.6 121.8 420.5

Last Refresh: 15-Jun-2024 01:41:16

Bureau of Meteorology